NGTA/TRW METAR and TAF weather

Enter ICAO airport designator
Station Type Date Time Source
NGTA METAR 2020/11/28 19:00 UTC NOAA

NGTA 281900Z 11011KT 9999 FEW019TCU SCT040 BKN100 27/25 Q1008


Station Type Date Time Source
NGTA Decoded METAR 2020/11/28 19:00 UTC NOAA

Tarawa, Kiribati (NGTA) 01-21N 172-55E 4M
Nov 28, 2020 - 02:00 PM EST / 2020.11.28 1900 UTC
Wind: from the ESE (110 degrees) at 13 MPH (11 KT):0
Visibility: greater than 7 mile(s):0
Sky conditions: mostly cloudy
Weather: Towering cumulus clouds observed
Temperature: 80 F (27 C)
Dew Point: 77 F (25 C)
Relative Humidity: 88%
Pressure (altimeter): 29.77 in. Hg (1008 hPa)
ob: NGTA 281900Z 11011KT 9999 FEW019TCU SCT040 BKN100 27/25 Q1008
cycle: 19

Station Type Date Time Source
NGTA TAF 2020/11/28 18:03 UTC NOAA

TAF NGTA 281701Z 2818/2918 11008KT 9999 -SHRA FEW019 BKN040 PROB40
TEMPO 2818/2820 5000 TSRA FEW018CB

Example: see airport list